sensor_id;sensor_type;location;lat;lon;timestamp;P1;durP1;ratioP1;P2;durP2;ratioP2
16199;SDS011;8207;52.494;4.654;2023-04-25T00:02:06;7.43;;;2.73;;
16199;SDS011;8207;52.494;4.654;2023-04-25T00:04:33;9.33;;;3.07;;
16199;SDS011;8207;52.494;4.654;2023-04-25T00:07:03;11.07;;;3.20;;
16199;SDS011;8207;52.494;4.654;2023-04-25T00:09:30;10.67;;;2.90;;
16199;SDS011;8207;52.494;4.654;2023-04-25T00:11:57;15.17;;;3.13;;
16199;SDS011;8207;52.494;4.654;2023-04-25T00:14:27;17.33;;;3.63;;
16199;SDS011;8207;52.494;4.654;2023-04-25T00:16:55;9.97;;;3.10;;
16199;SDS011;8207;52.494;4.654;2023-04-25T00:19:22;11.30;;;2.47;;
16199;SDS011;8207;52.494;4.654;2023-04-25T00:21:49;12.83;;;3.07;;
16199;SDS011;8207;52.494;4.654;2023-04-25T00:24:16;5.80;;;2.50;;
16199;SDS011;8207;52.494;4.654;2023-04-25T00:26:43;13.33;;;3.67;;
16199;SDS011;8207;52.494;4.654;2023-04-25T00:29:10;10.93;;;2.80;;
16199;SDS011;8207;52.494;4.654;2023-04-25T00:31:38;9.13;;;3.23;;
16199;SDS011;8207;52.494;4.654;2023-04-25T00:34:05;12.00;;;2.03;;
16199;SDS011;8207;52.494;4.654;2023-04-25T00:36:33;7.67;;;2.27;;
16199;SDS011;8207;52.494;4.654;2023-04-25T00:39:00;7.20;;;2.03;;
16199;SDS011;8207;52.494;4.654;2023-04-25T00:41:27;13.93;;;2.70;;
16199;SDS011;8207;52.494;4.654;2023-04-25T00:43:55;8.30;;;2.03;;
16199;SDS011;8207;52.494;4.654;2023-04-25T00:46:22;7.03;;;2.37;;
16199;SDS011;8207;52.494;4.654;2023-04-25T00:48:51;10.43;;;2.20;;
16199;SDS011;8207;52.494;4.654;2023-04-25T00:51:19;12.63;;;2.70;;
16199;SDS011;8207;52.494;4.654;2023-04-25T00:53:46;8.90;;;2.60;;
16199;SDS011;8207;52.494;4.654;2023-04-25T00:56:15;13.93;;;2.57;;
16199;SDS011;8207;52.494;4.654;2023-04-25T00:58:42;10.80;;;2.63;;
16199;SDS011;8207;52.494;4.654;2023-04-25T01:01:09;10.13;;;2.47;;
16199;SDS011;8207;52.494;4.654;2023-04-25T01:03:37;13.23;;;3.37;;
16199;SDS011;8207;52.494;4.654;2023-04-25T01:06:08;14.70;;;3.80;;
16199;SDS011;8207;52.494;4.654;2023-04-25T01:08:36;11.83;;;3.00;;
16199;SDS011;8207;52.494;4.654;2023-04-25T01:11:04;7.27;;;2.30;;
16199;SDS011;8207;52.494;4.654;2023-04-25T01:13:32;10.40;;;3.00;;
16199;SDS011;8207;52.494;4.654;2023-04-25T01:16:00;7.47;;;2.87;;
16199;SDS011;8207;52.494;4.654;2023-04-25T01:18:27;10.97;;;2.30;;
16199;SDS011;8207;52.494;4.654;2023-04-25T01:20:54;9.50;;;2.47;;
16199;SDS011;8207;52.494;4.654;2023-04-25T01:23:23;11.97;;;2.43;;
16199;SDS011;8207;52.494;4.654;2023-04-25T01:25:50;11.90;;;2.73;;
16199;SDS011;8207;52.494;4.654;2023-04-25T01:28:17;6.80;;;2.47;;
16199;SDS011;8207;52.494;4.654;2023-04-25T01:30:44;10.10;;;2.90;;
16199;SDS011;8207;52.494;4.654;2023-04-25T01:33:12;10.87;;;2.67;;
16199;SDS011;8207;52.494;4.654;2023-04-25T01:35:41;7.83;;;2.70;;
16199;SDS011;8207;52.494;4.654;2023-04-25T01:38:08;11.27;;;2.40;;
16199;SDS011;8207;52.494;4.654;2023-04-25T01:40:37;10.13;;;2.90;;
16199;SDS011;8207;52.494;4.654;2023-04-25T01:43:06;7.50;;;2.53;;
16199;SDS011;8207;52.494;4.654;2023-04-25T01:45:36;10.97;;;2.87;;
16199;SDS011;8207;52.494;4.654;2023-04-25T01:48:05;13.93;;;3.37;;
16199;SDS011;8207;52.494;4.654;2023-04-25T01:50:31;11.47;;;2.87;;
16199;SDS011;8207;52.494;4.654;2023-04-25T01:52:58;11.67;;;2.70;;
16199;SDS011;8207;52.494;4.654;2023-04-25T01:55:26;16.57;;;2.87;;
16199;SDS011;8207;52.494;4.654;2023-04-25T01:57:55;11.67;;;2.87;;
16199;SDS011;8207;52.494;4.654;2023-04-25T02:00:22;8.57;;;2.80;;
16199;SDS011;8207;52.494;4.654;2023-04-25T02:02:49;11.43;;;3.53;;
16199;SDS011;8207;52.494;4.654;2023-04-25T02:05:18;8.37;;;2.03;;
16199;SDS011;8207;52.494;4.654;2023-04-25T02:07:45;11.40;;;2.10;;
16199;SDS011;8207;52.494;4.654;2023-04-25T02:10:13;7.47;;;2.07;;
16199;SDS011;8207;52.494;4.654;2023-04-25T02:12:40;4.07;;;1.60;;
16199;SDS011;8207;52.494;4.654;2023-04-25T02:15:08;3.97;;;1.40;;
16199;SDS011;8207;52.494;4.654;2023-04-25T02:17:36;5.37;;;2.23;;
16199;SDS011;8207;52.494;4.654;2023-04-25T02:20:04;3.10;;;1.37;;
16199;SDS011;8207;52.494;4.654;2023-04-25T02:22:32;9.07;;;2.27;;
16199;SDS011;8207;52.494;4.654;2023-04-25T02:25:00;4.37;;;1.37;;
16199;SDS011;8207;52.494;4.654;2023-04-25T02:27:27;5.67;;;1.90;;
16199;SDS011;8207;52.494;4.654;2023-04-25T02:29:54;4.00;;;1.67;;
16199;SDS011;8207;52.494;4.654;2023-04-25T02:32:22;8.50;;;2.00;;
16199;SDS011;8207;52.494;4.654;2023-04-25T02:34:49;4.97;;;1.77;;
16199;SDS011;8207;52.494;4.654;2023-04-25T02:37:16;6.80;;;1.50;;
16199;SDS011;8207;52.494;4.654;2023-04-25T02:39:43;5.53;;;1.90;;
16199;SDS011;8207;52.494;4.654;2023-04-25T02:42:10;8.00;;;2.00;;
16199;SDS011;8207;52.494;4.654;2023-04-25T02:44:36;8.23;;;2.17;;
16199;SDS011;8207;52.494;4.654;2023-04-25T02:47:03;6.67;;;1.77;;
16199;SDS011;8207;52.494;4.654;2023-04-25T02:49:32;7.30;;;1.97;;
16199;SDS011;8207;52.494;4.654;2023-04-25T02:51:58;10.67;;;2.53;;
16199;SDS011;8207;52.494;4.654;2023-04-25T02:54:25;6.97;;;1.97;;
16199;SDS011;8207;52.494;4.654;2023-04-25T02:56:52;10.43;;;1.90;;
16199;SDS011;8207;52.494;4.654;2023-04-25T02:59:19;7.63;;;2.03;;
16199;SDS011;8207;52.494;4.654;2023-04-25T03:01:46;8.30;;;2.20;;
16199;SDS011;8207;52.494;4.654;2023-04-25T03:04:13;7.13;;;2.03;;
16199;SDS011;8207;52.494;4.654;2023-04-25T03:06:41;12.87;;;2.43;;
16199;SDS011;8207;52.494;4.654;2023-04-25T03:09:08;9.60;;;2.30;;
16199;SDS011;8207;52.494;4.654;2023-04-25T03:11:36;8.97;;;2.03;;
16199;SDS011;8207;52.494;4.654;2023-04-25T03:14:04;5.23;;;1.63;;
16199;SDS011;8207;52.494;4.654;2023-04-25T03:16:31;6.73;;;1.70;;
16199;SDS011;8207;52.494;4.654;2023-04-25T03:18:58;12.07;;;2.00;;
16199;SDS011;8207;52.494;4.654;2023-04-25T03:21:25;10.60;;;2.33;;
16199;SDS011;8207;52.494;4.654;2023-04-25T03:23:53;9.53;;;2.33;;
16199;SDS011;8207;52.494;4.654;2023-04-25T03:26:20;5.60;;;2.10;;
16199;SDS011;8207;52.494;4.654;2023-04-25T03:28:47;7.47;;;1.97;;
16199;SDS011;8207;52.494;4.654;2023-04-25T03:31:14;3.60;;;1.57;;
16199;SDS011;8207;52.494;4.654;2023-04-25T03:33:41;7.77;;;1.93;;
16199;SDS011;8207;52.494;4.654;2023-04-25T03:36:08;11.20;;;2.53;;
16199;SDS011;8207;52.494;4.654;2023-04-25T03:38:35;4.33;;;1.87;;
16199;SDS011;8207;52.494;4.654;2023-04-25T03:41:04;7.53;;;1.87;;
16199;SDS011;8207;52.494;4.654;2023-04-25T03:43:30;8.60;;;1.80;;
16199;SDS011;8207;52.494;4.654;2023-04-25T03:45:57;3.53;;;1.47;;
16199;SDS011;8207;52.494;4.654;2023-04-25T03:48:25;7.33;;;1.90;;
16199;SDS011;8207;52.494;4.654;2023-04-25T03:50:52;8.50;;;1.50;;
16199;SDS011;8207;52.494;4.654;2023-04-25T03:53:19;5.07;;;1.60;;
16199;SDS011;8207;52.494;4.654;2023-04-25T03:55:47;7.23;;;1.70;;
16199;SDS011;8207;52.494;4.654;2023-04-25T03:58:15;10.10;;;2.03;;
16199;SDS011;8207;52.494;4.654;2023-04-25T04:00:42;6.30;;;1.50;;
16199;SDS011;8207;52.494;4.654;2023-04-25T04:03:09;5.17;;;1.47;;
16199;SDS011;8207;52.494;4.654;2023-04-25T04:05:36;5.43;;;1.97;;
16199;SDS011;8207;52.494;4.654;2023-04-25T04:08:05;6.23;;;2.10;;
16199;SDS011;8207;52.494;4.654;2023-04-25T04:10:32;4.63;;;1.87;;
16199;SDS011;8207;52.494;4.654;2023-04-25T04:12:59;10.37;;;2.57;;
16199;SDS011;8207;52.494;4.654;2023-04-25T04:15:28;8.03;;;2.10;;
16199;SDS011;8207;52.494;4.654;2023-04-25T04:17:57;14.97;;;3.17;;
16199;SDS011;8207;52.494;4.654;2023-04-25T04:20:27;12.00;;;2.67;;
16199;SDS011;8207;52.494;4.654;2023-04-25T04:22:54;6.03;;;1.80;;
16199;SDS011;8207;52.494;4.654;2023-04-25T04:25:21;10.33;;;2.10;;
16199;SDS011;8207;52.494;4.654;2023-04-25T04:27:49;9.23;;;2.80;;
16199;SDS011;8207;52.494;4.654;2023-04-25T04:30:19;9.13;;;2.53;;
16199;SDS011;8207;52.494;4.654;2023-04-25T04:32:50;12.27;;;2.80;;
16199;SDS011;8207;52.494;4.654;2023-04-25T04:35:17;11.17;;;3.67;;
16199;SDS011;8207;52.494;4.654;2023-04-25T04:37:44;7.47;;;2.13;;
16199;SDS011;8207;52.494;4.654;2023-04-25T04:40:11;8.83;;;2.83;;
16199;SDS011;8207;52.494;4.654;2023-04-25T04:42:40;10.07;;;2.17;;
16199;SDS011;8207;52.494;4.654;2023-04-25T04:45:07;10.30;;;2.40;;
16199;SDS011;8207;52.494;4.654;2023-04-25T04:47:35;7.87;;;2.13;;
16199;SDS011;8207;52.494;4.654;2023-04-25T04:50:06;8.37;;;2.33;;
16199;SDS011;8207;52.494;4.654;2023-04-25T04:52:33;9.63;;;1.67;;
16199;SDS011;8207;52.494;4.654;2023-04-25T04:55:01;7.47;;;1.87;;
16199;SDS011;8207;52.494;4.654;2023-04-25T04:57:28;7.37;;;2.37;;
16199;SDS011;8207;52.494;4.654;2023-04-25T04:59:56;10.83;;;2.60;;
16199;SDS011;8207;52.494;4.654;2023-04-25T05:02:23;10.03;;;2.20;;
16199;SDS011;8207;52.494;4.654;2023-04-25T05:04:49;14.80;;;2.90;;
16199;SDS011;8207;52.494;4.654;2023-04-25T05:07:18;9.10;;;1.90;;
16199;SDS011;8207;52.494;4.654;2023-04-25T05:09:45;14.40;;;2.90;;
16199;SDS011;8207;52.494;4.654;2023-04-25T05:12:11;12.10;;;2.50;;
16199;SDS011;8207;52.494;4.654;2023-04-25T05:14:38;18.63;;;3.10;;
16199;SDS011;8207;52.494;4.654;2023-04-25T05:17:05;10.03;;;2.07;;
16199;SDS011;8207;52.494;4.654;2023-04-25T05:19:33;13.27;;;2.20;;
16199;SDS011;8207;52.494;4.654;2023-04-25T05:22:00;7.63;;;1.87;;
16199;SDS011;8207;52.494;4.654;2023-04-25T05:24:29;6.50;;;2.60;;
16199;SDS011;8207;52.494;4.654;2023-04-25T05:26:56;9.40;;;2.50;;
16199;SDS011;8207;52.494;4.654;2023-04-25T05:29:23;8.67;;;2.70;;
16199;SDS011;8207;52.494;4.654;2023-04-25T05:31:50;7.00;;;2.63;;
16199;SDS011;8207;52.494;4.654;2023-04-25T05:34:18;7.10;;;1.80;;
16199;SDS011;8207;52.494;4.654;2023-04-25T05:36:44;7.63;;;2.03;;
16199;SDS011;8207;52.494;4.654;2023-04-25T05:39:13;6.30;;;2.00;;
16199;SDS011;8207;52.494;4.654;2023-04-25T05:41:41;8.10;;;1.60;;
16199;SDS011;8207;52.494;4.654;2023-04-25T05:44:08;7.43;;;1.80;;
16199;SDS011;8207;52.494;4.654;2023-04-25T05:46:35;7.70;;;2.00;;
16199;SDS011;8207;52.494;4.654;2023-04-25T05:49:02;8.77;;;1.60;;
16199;SDS011;8207;52.494;4.654;2023-04-25T05:51:29;5.73;;;1.60;;
16199;SDS011;8207;52.494;4.654;2023-04-25T05:53:56;8.93;;;1.83;;
16199;SDS011;8207;52.494;4.654;2023-04-25T05:56:23;8.20;;;2.10;;
16199;SDS011;8207;52.494;4.654;2023-04-25T05:58:52;5.53;;;1.93;;
16199;SDS011;8207;52.494;4.654;2023-04-25T06:01:19;7.10;;;2.00;;
16199;SDS011;8207;52.494;4.654;2023-04-25T06:03:45;7.50;;;2.00;;
16199;SDS011;8207;52.494;4.654;2023-04-25T06:06:12;5.63;;;1.50;;
16199;SDS011;8207;52.494;4.654;2023-04-25T06:08:39;9.93;;;1.70;;
16199;SDS011;8207;52.494;4.654;2023-04-25T06:11:06;11.03;;;2.00;;
16199;SDS011;8207;52.494;4.654;2023-04-25T06:13:33;6.97;;;1.60;;
16199;SDS011;8207;52.494;4.654;2023-04-25T06:16:01;4.03;;;1.57;;
16199;SDS011;8207;52.494;4.654;2023-04-25T06:18:29;6.87;;;1.50;;
16199;SDS011;8207;52.494;4.654;2023-04-25T06:20:56;10.40;;;1.80;;
16199;SDS011;8207;52.494;4.654;2023-04-25T06:23:23;8.30;;;1.90;;
16199;SDS011;8207;52.494;4.654;2023-04-25T06:25:50;7.70;;;2.07;;
16199;SDS011;8207;52.494;4.654;2023-04-25T06:28:17;7.00;;;1.97;;
16199;SDS011;8207;52.494;4.654;2023-04-25T06:30:44;8.17;;;1.40;;
16199;SDS011;8207;52.494;4.654;2023-04-25T06:33:12;5.70;;;2.00;;
16199;SDS011;8207;52.494;4.654;2023-04-25T06:35:39;12.10;;;2.63;;
16199;SDS011;8207;52.494;4.654;2023-04-25T06:38:06;7.53;;;2.17;;
16199;SDS011;8207;52.494;4.654;2023-04-25T06:40:34;10.70;;;2.43;;
16199;SDS011;8207;52.494;4.654;2023-04-25T06:43:00;14.87;;;3.00;;
16199;SDS011;8207;52.494;4.654;2023-04-25T06:45:27;8.47;;;2.00;;
16199;SDS011;8207;52.494;4.654;2023-04-25T06:47:54;7.17;;;1.60;;
16199;SDS011;8207;52.494;4.654;2023-04-25T06:50:23;5.43;;;1.73;;
16199;SDS011;8207;52.494;4.654;2023-04-25T06:52:49;7.20;;;1.63;;
16199;SDS011;8207;52.494;4.654;2023-04-25T06:55:17;6.07;;;1.87;;
16199;SDS011;8207;52.494;4.654;2023-04-25T06:57:44;9.40;;;1.60;;
16199;SDS011;8207;52.494;4.654;2023-04-25T07:00:11;8.53;;;1.77;;
16199;SDS011;8207;52.494;4.654;2023-04-25T07:02:38;9.33;;;1.60;;
16199;SDS011;8207;52.494;4.654;2023-04-25T07:05:07;4.90;;;2.07;;
16199;SDS011;8207;52.494;4.654;2023-04-25T07:07:36;5.37;;;2.17;;
16199;SDS011;8207;52.494;4.654;2023-04-25T07:10:03;5.80;;;1.60;;
16199;SDS011;8207;52.494;4.654;2023-04-25T07:12:31;5.00;;;1.60;;
16199;SDS011;8207;52.494;4.654;2023-04-25T07:14:57;3.63;;;1.40;;
16199;SDS011;8207;52.494;4.654;2023-04-25T07:17:25;5.87;;;1.50;;
16199;SDS011;8207;52.494;4.654;2023-04-25T07:19:51;8.50;;;2.43;;
16199;SDS011;8207;52.494;4.654;2023-04-25T07:22:18;4.63;;;1.80;;
16199;SDS011;8207;52.494;4.654;2023-04-25T07:24:46;7.40;;;1.40;;
16199;SDS011;8207;52.494;4.654;2023-04-25T07:27:13;8.70;;;1.90;;
16199;SDS011;8207;52.494;4.654;2023-04-25T07:29:40;5.20;;;1.70;;
16199;SDS011;8207;52.494;4.654;2023-04-25T07:32:09;5.10;;;1.60;;
16199;SDS011;8207;52.494;4.654;2023-04-25T07:34:38;9.17;;;2.00;;
16199;SDS011;8207;52.494;4.654;2023-04-25T07:37:06;8.53;;;1.60;;
16199;SDS011;8207;52.494;4.654;2023-04-25T07:39:33;6.37;;;1.40;;
16199;SDS011;8207;52.494;4.654;2023-04-25T07:42:03;3.10;;;1.30;;
16199;SDS011;8207;52.494;4.654;2023-04-25T07:44:32;2.93;;;1.10;;
16199;SDS011;8207;52.494;4.654;2023-04-25T07:47:03;4.10;;;1.00;;
16199;SDS011;8207;52.494;4.654;2023-04-25T07:49:31;7.40;;;1.20;;
16199;SDS011;8207;52.494;4.654;2023-04-25T07:51:59;4.90;;;1.50;;
16199;SDS011;8207;52.494;4.654;2023-04-25T07:54:25;6.60;;;1.50;;
16199;SDS011;8207;52.494;4.654;2023-04-25T07:56:52;6.23;;;1.30;;
16199;SDS011;8207;52.494;4.654;2023-04-25T07:59:21;6.33;;;1.67;;
16199;SDS011;8207;52.494;4.654;2023-04-25T08:01:48;6.50;;;1.60;;
16199;SDS011;8207;52.494;4.654;2023-04-25T08:04:15;10.10;;;2.00;;
16199;SDS011;8207;52.494;4.654;2023-04-25T08:06:42;5.33;;;1.77;;
16199;SDS011;8207;52.494;4.654;2023-04-25T08:09:08;4.60;;;1.20;;
16199;SDS011;8207;52.494;4.654;2023-04-25T08:11:36;4.70;;;1.10;;
16199;SDS011;8207;52.494;4.654;2023-04-25T08:14:03;5.43;;;1.73;;
16199;SDS011;8207;52.494;4.654;2023-04-25T08:16:31;6.80;;;1.57;;
16199;SDS011;8207;52.494;4.654;2023-04-25T08:18:58;6.50;;;1.50;;
16199;SDS011;8207;52.494;4.654;2023-04-25T08:21:26;3.03;;;1.20;;
16199;SDS011;8207;52.494;4.654;2023-04-25T08:23:53;5.77;;;1.17;;
16199;SDS011;8207;52.494;4.654;2023-04-25T08:26:19;3.87;;;1.10;;
16199;SDS011;8207;52.494;4.654;2023-04-25T08:28:46;4.67;;;1.13;;
16199;SDS011;8207;52.494;4.654;2023-04-25T08:31:13;4.53;;;1.87;;
16199;SDS011;8207;52.494;4.654;2023-04-25T08:33:41;8.10;;;1.97;;
16199;SDS011;8207;52.494;4.654;2023-04-25T08:36:08;7.00;;;1.53;;
16199;SDS011;8207;52.494;4.654;2023-04-25T08:38:35;6.63;;;1.17;;
16199;SDS011;8207;52.494;4.654;2023-04-25T08:41:02;6.10;;;1.33;;
16199;SDS011;8207;52.494;4.654;2023-04-25T08:43:31;5.20;;;1.70;;
16199;SDS011;8207;52.494;4.654;2023-04-25T08:46:00;6.60;;;1.40;;
16199;SDS011;8207;52.494;4.654;2023-04-25T08:48:28;6.10;;;1.87;;
16199;SDS011;8207;52.494;4.654;2023-04-25T08:51:01;3.90;;;1.67;;
16199;SDS011;8207;52.494;4.654;2023-04-25T08:53:29;4.03;;;1.13;;
16199;SDS011;8207;52.494;4.654;2023-04-25T08:55:58;4.40;;;1.50;;
16199;SDS011;8207;52.494;4.654;2023-04-25T08:58:27;4.10;;;0.83;;
16199;SDS011;8207;52.494;4.654;2023-04-25T09:00:55;7.90;;;1.57;;
16199;SDS011;8207;52.494;4.654;2023-04-25T09:03:21;6.30;;;1.67;;
16199;SDS011;8207;52.494;4.654;2023-04-25T09:05:48;4.87;;;1.20;;
16199;SDS011;8207;52.494;4.654;2023-04-25T09:08:17;6.27;;;1.53;;
16199;SDS011;8207;52.494;4.654;2023-04-25T09:10:44;3.13;;;1.10;;
16199;SDS011;8207;52.494;4.654;2023-04-25T09:13:11;6.40;;;1.87;;
16199;SDS011;8207;52.494;4.654;2023-04-25T09:15:46;4.53;;;1.40;;
16199;SDS011;8207;52.494;4.654;2023-04-25T09:18:21;9.57;;;1.50;;
16199;SDS011;8207;52.494;4.654;2023-04-25T09:20:51;3.67;;;1.17;;
16199;SDS011;8207;52.494;4.654;2023-04-25T09:23:19;5.97;;;1.73;;
16199;SDS011;8207;52.494;4.654;2023-04-25T09:25:47;6.47;;;1.33;;
16199;SDS011;8207;52.494;4.654;2023-04-25T09:28:15;4.23;;;1.33;;
16199;SDS011;8207;52.494;4.654;2023-04-25T09:30:42;6.40;;;2.17;;
16199;SDS011;8207;52.494;4.654;2023-04-25T09:33:12;5.77;;;1.10;;
16199;SDS011;8207;52.494;4.654;2023-04-25T09:35:40;2.73;;;1.17;;
16199;SDS011;8207;52.494;4.654;2023-04-25T09:38:11;2.13;;;0.80;;
16199;SDS011;8207;52.494;4.654;2023-04-25T09:40:41;2.90;;;1.30;;
16199;SDS011;8207;52.494;4.654;2023-04-25T09:43:09;5.47;;;1.30;;
16199;SDS011;8207;52.494;4.654;2023-04-25T09:45:40;3.57;;;1.30;;
16199;SDS011;8207;52.494;4.654;2023-04-25T09:48:10;5.07;;;1.27;;
16199;SDS011;8207;52.494;4.654;2023-04-25T09:50:38;7.77;;;1.43;;
16199;SDS011;8207;52.494;4.654;2023-04-25T09:53:05;5.90;;;1.40;;
16199;SDS011;8207;52.494;4.654;2023-04-25T09:55:32;6.77;;;1.63;;
16199;SDS011;8207;52.494;4.654;2023-04-25T09:58:03;6.17;;;1.30;;
16199;SDS011;8207;52.494;4.654;2023-04-25T10:00:32;6.67;;;1.60;;
16199;SDS011;8207;52.494;4.654;2023-04-25T10:03:01;5.60;;;1.50;;
16199;SDS011;8207;52.494;4.654;2023-04-25T10:05:30;3.93;;;1.63;;
16199;SDS011;8207;52.494;4.654;2023-04-25T10:08:02;6.70;;;1.97;;
16199;SDS011;8207;52.494;4.654;2023-04-25T10:10:30;6.83;;;1.70;;
16199;SDS011;8207;52.494;4.654;2023-04-25T10:13:03;9.77;;;1.80;;
16199;SDS011;8207;52.494;4.654;2023-04-25T10:15:31;9.73;;;2.10;;
16199;SDS011;8207;52.494;4.654;2023-04-25T10:18:01;6.50;;;1.87;;
16199;SDS011;8207;52.494;4.654;2023-04-25T10:20:28;7.13;;;1.73;;
16199;SDS011;8207;52.494;4.654;2023-04-25T10:22:57;9.97;;;1.67;;
16199;SDS011;8207;52.494;4.654;2023-04-25T10:25:29;4.03;;;1.20;;
16199;SDS011;8207;52.494;4.654;2023-04-25T10:27:57;6.43;;;1.27;;
16199;SDS011;8207;52.494;4.654;2023-04-25T10:30:28;6.17;;;0.87;;
16199;SDS011;8207;52.494;4.654;2023-04-25T10:32:55;5.70;;;1.50;;
16199;SDS011;8207;52.494;4.654;2023-04-25T10:35:24;9.47;;;1.53;;
16199;SDS011;8207;52.494;4.654;2023-04-25T10:38:02;3.53;;;1.33;;
16199;SDS011;8207;52.494;4.654;2023-04-25T10:40:30;4.80;;;1.20;;
16199;SDS011;8207;52.494;4.654;2023-04-25T10:46:03;2.20;;;1.00;;
16199;SDS011;8207;52.494;4.654;2023-04-25T10:48:43;3.90;;;1.10;;
16199;SDS011;8207;52.494;4.654;2023-04-25T10:51:15;2.60;;;1.00;;
16199;SDS011;8207;52.494;4.654;2023-04-25T10:53:43;5.10;;;1.30;;
16199;SDS011;8207;52.494;4.654;2023-04-25T10:56:11;6.67;;;1.40;;
16199;SDS011;8207;52.494;4.654;2023-04-25T10:58:41;5.17;;;1.40;;
16199;SDS011;8207;52.494;4.654;2023-04-25T11:01:10;5.60;;;1.40;;
16199;SDS011;8207;52.494;4.654;2023-04-25T11:03:40;4.90;;;1.43;;
16199;SDS011;8207;52.494;4.654;2023-04-25T11:06:10;6.73;;;1.97;;
16199;SDS011;8207;52.494;4.654;2023-04-25T11:08:47;8.10;;;1.50;;
16199;SDS011;8207;52.494;4.654;2023-04-25T11:11:16;3.17;;;1.23;;
16199;SDS011;8207;52.494;4.654;2023-04-25T11:13:44;4.70;;;1.47;;
16199;SDS011;8207;52.494;4.654;2023-04-25T11:16:15;6.07;;;1.40;;
16199;SDS011;8207;52.494;4.654;2023-04-25T11:18:42;4.40;;;1.47;;
16199;SDS011;8207;52.494;4.654;2023-04-25T11:21:09;5.70;;;1.30;;
16199;SDS011;8207;52.494;4.654;2023-04-25T11:23:36;4.50;;;1.50;;
16199;SDS011;8207;52.494;4.654;2023-04-25T11:26:03;7.07;;;1.20;;
16199;SDS011;8207;52.494;4.654;2023-04-25T11:28:30;8.07;;;1.27;;
16199;SDS011;8207;52.494;4.654;2023-04-25T11:30:57;3.40;;;1.20;;
16199;SDS011;8207;52.494;4.654;2023-04-25T11:33:26;5.37;;;1.20;;
16199;SDS011;8207;52.494;4.654;2023-04-25T11:35:53;3.67;;;1.60;;
16199;SDS011;8207;52.494;4.654;2023-04-25T11:38:21;5.30;;;1.60;;
16199;SDS011;8207;52.494;4.654;2023-04-25T11:40:52;3.63;;;1.20;;
16199;SDS011;8207;52.494;4.654;2023-04-25T11:43:20;5.40;;;1.33;;
16199;SDS011;8207;52.494;4.654;2023-04-25T11:45:48;5.93;;;1.43;;
16199;SDS011;8207;52.494;4.654;2023-04-25T11:48:15;5.30;;;1.20;;
16199;SDS011;8207;52.494;4.654;2023-04-25T11:50:44;6.03;;;1.30;;
16199;SDS011;8207;52.494;4.654;2023-04-25T11:53:11;4.13;;;1.33;;
16199;SDS011;8207;52.494;4.654;2023-04-25T11:55:38;5.03;;;1.20;;
16199;SDS011;8207;52.494;4.654;2023-04-25T11:58:05;8.20;;;1.63;;
16199;SDS011;8207;52.494;4.654;2023-04-25T12:00:33;6.40;;;1.97;;
16199;SDS011;8207;52.494;4.654;2023-04-25T12:03:00;4.93;;;1.33;;
16199;SDS011;8207;52.494;4.654;2023-04-25T12:05:28;6.83;;;1.43;;
16199;SDS011;8207;52.494;4.654;2023-04-25T12:07:59;6.97;;;1.30;;
16199;SDS011;8207;52.494;4.654;2023-04-25T12:10:36;4.17;;;1.40;;
16199;SDS011;8207;52.494;4.654;2023-04-25T12:13:17;10.33;;;1.70;;
16199;SDS011;8207;52.494;4.654;2023-04-25T12:15:45;4.30;;;1.37;;
16199;SDS011;8207;52.494;4.654;2023-04-25T12:18:12;3.23;;;1.13;;
16199;SDS011;8207;52.494;4.654;2023-04-25T12:20:39;6.13;;;1.30;;
16199;SDS011;8207;52.494;4.654;2023-04-25T12:23:07;6.50;;;1.67;;
16199;SDS011;8207;52.494;4.654;2023-04-25T12:25:34;9.07;;;1.70;;
16199;SDS011;8207;52.494;4.654;2023-04-25T12:28:09;6.00;;;1.50;;
16199;SDS011;8207;52.494;4.654;2023-04-25T12:30:53;8.23;;;2.13;;
16199;SDS011;8207;52.494;4.654;2023-04-25T12:33:24;6.87;;;1.73;;
16199;SDS011;8207;52.494;4.654;2023-04-25T12:35:52;8.40;;;1.83;;
16199;SDS011;8207;52.494;4.654;2023-04-25T12:38:24;10.27;;;2.00;;
16199;SDS011;8207;52.494;4.654;2023-04-25T12:40:52;6.43;;;1.50;;
16199;SDS011;8207;52.494;4.654;2023-04-25T12:43:19;5.47;;;1.33;;
16199;SDS011;8207;52.494;4.654;2023-04-25T12:45:47;3.87;;;1.60;;
16199;SDS011;8207;52.494;4.654;2023-04-25T12:48:15;7.83;;;1.57;;
16199;SDS011;8207;52.494;4.654;2023-04-25T12:50:41;6.43;;;1.77;;
16199;SDS011;8207;52.494;4.654;2023-04-25T12:53:08;10.27;;;1.50;;
16199;SDS011;8207;52.494;4.654;2023-04-25T12:55:37;7.33;;;1.60;;
16199;SDS011;8207;52.494;4.654;2023-04-25T12:58:05;7.13;;;1.27;;
16199;SDS011;8207;52.494;4.654;2023-04-25T13:00:32;3.63;;;1.27;;
16199;SDS011;8207;52.494;4.654;2023-04-25T13:02:59;6.73;;;1.67;;
16199;SDS011;8207;52.494;4.654;2023-04-25T13:05:26;6.27;;;1.40;;
16199;SDS011;8207;52.494;4.654;2023-04-25T13:07:53;7.97;;;1.80;;
16199;SDS011;8207;52.494;4.654;2023-04-25T13:10:20;5.00;;;1.23;;
16199;SDS011;8207;52.494;4.654;2023-04-25T13:12:48;4.13;;;1.43;;
16199;SDS011;8207;52.494;4.654;2023-04-25T13:15:15;6.57;;;1.30;;
16199;SDS011;8207;52.494;4.654;2023-04-25T13:17:42;6.10;;;1.43;;
16199;SDS011;8207;52.494;4.654;2023-04-25T13:20:09;3.27;;;1.17;;
16199;SDS011;8207;52.494;4.654;2023-04-25T13:22:37;5.63;;;1.30;;
16199;SDS011;8207;52.494;4.654;2023-04-25T13:25:05;7.80;;;1.60;;
16199;SDS011;8207;52.494;4.654;2023-04-25T13:27:32;7.27;;;1.57;;
16199;SDS011;8207;52.494;4.654;2023-04-25T13:30:03;3.80;;;1.50;;
16199;SDS011;8207;52.494;4.654;2023-04-25T13:32:32;6.63;;;1.90;;
16199;SDS011;8207;52.494;4.654;2023-04-25T13:35:00;7.57;;;1.47;;
16199;SDS011;8207;52.494;4.654;2023-04-25T13:37:28;7.80;;;1.67;;
16199;SDS011;8207;52.494;4.654;2023-04-25T13:39:55;9.13;;;1.53;;
16199;SDS011;8207;52.494;4.654;2023-04-25T13:42:22;4.70;;;1.30;;
16199;SDS011;8207;52.494;4.654;2023-04-25T13:44:49;5.77;;;1.73;;
16199;SDS011;8207;52.494;4.654;2023-04-25T13:47:18;3.10;;;1.20;;
16199;SDS011;8207;52.494;4.654;2023-04-25T13:49:45;13.13;;;1.93;;
16199;SDS011;8207;52.494;4.654;2023-04-25T13:52:12;8.80;;;1.70;;
16199;SDS011;8207;52.494;4.654;2023-04-25T13:54:38;8.27;;;1.97;;
16199;SDS011;8207;52.494;4.654;2023-04-25T13:57:05;5.40;;;1.40;;
16199;SDS011;8207;52.494;4.654;2023-04-25T13:59:32;5.47;;;1.43;;
16199;SDS011;8207;52.494;4.654;2023-04-25T14:01:59;5.87;;;1.40;;
16199;SDS011;8207;52.494;4.654;2023-04-25T14:04:27;6.53;;;1.30;;
16199;SDS011;8207;52.494;4.654;2023-04-25T14:06:55;5.70;;;2.10;;
16199;SDS011;8207;52.494;4.654;2023-04-25T14:09:21;7.70;;;1.63;;
16199;SDS011;8207;52.494;4.654;2023-04-25T14:11:50;7.83;;;2.00;;
16199;SDS011;8207;52.494;4.654;2023-04-25T14:14:17;6.83;;;1.60;;
16199;SDS011;8207;52.494;4.654;2023-04-25T14:16:44;6.73;;;1.80;;
16199;SDS011;8207;52.494;4.654;2023-04-25T14:19:13;5.43;;;1.37;;
16199;SDS011;8207;52.494;4.654;2023-04-25T14:21:41;7.57;;;2.00;;
16199;SDS011;8207;52.494;4.654;2023-04-25T14:24:08;3.83;;;1.27;;
16199;SDS011;8207;52.494;4.654;2023-04-25T14:26:35;5.60;;;1.30;;
16199;SDS011;8207;52.494;4.654;2023-04-25T14:29:02;5.97;;;2.40;;
16199;SDS011;8207;52.494;4.654;2023-04-25T14:31:30;9.60;;;1.80;;
16199;SDS011;8207;52.494;4.654;2023-04-25T14:33:57;7.37;;;1.70;;
16199;SDS011;8207;52.494;4.654;2023-04-25T14:36:24;4.47;;;1.57;;
16199;SDS011;8207;52.494;4.654;2023-04-25T14:38:52;8.43;;;1.60;;
16199;SDS011;8207;52.494;4.654;2023-04-25T14:41:20;5.17;;;2.37;;
16199;SDS011;8207;52.494;4.654;2023-04-25T14:43:48;5.97;;;1.73;;
16199;SDS011;8207;52.494;4.654;2023-04-25T14:46:15;5.27;;;1.83;;
16199;SDS011;8207;52.494;4.654;2023-04-25T14:48:42;6.23;;;1.60;;
16199;SDS011;8207;52.494;4.654;2023-04-25T14:51:09;6.30;;;1.37;;
16199;SDS011;8207;52.494;4.654;2023-04-25T14:53:36;7.07;;;1.93;;
16199;SDS011;8207;52.494;4.654;2023-04-25T14:56:04;5.77;;;1.47;;
16199;SDS011;8207;52.494;4.654;2023-04-25T14:58:32;3.90;;;1.50;;
16199;SDS011;8207;52.494;4.654;2023-04-25T15:00:59;9.40;;;1.80;;
16199;SDS011;8207;52.494;4.654;2023-04-25T15:03:26;6.03;;;1.70;;
16199;SDS011;8207;52.494;4.654;2023-04-25T15:05:53;7.13;;;2.40;;